createdAt,value
2019-03-26T00:01:49.790Z,37.90
2019-03-26T00:04:46.084Z,37.60
2019-03-26T00:07:43.684Z,37.60
2019-03-26T00:10:40.657Z,37.50
2019-03-26T00:13:37.525Z,37.40
2019-03-26T00:16:34.030Z,37.30
2019-03-26T00:19:30.743Z,37.40
2019-03-26T00:22:28.468Z,37.40
2019-03-26T00:25:25.098Z,37.40
2019-03-26T00:28:21.122Z,37.40
2019-03-26T00:31:18.004Z,37.20
2019-03-26T00:34:19.454Z,37.30
2019-03-26T00:37:11.938Z,37.50
2019-03-26T00:40:09.645Z,37.90
2019-03-26T00:43:06.496Z,38.30
2019-03-26T00:46:02.939Z,38.50
2019-03-26T00:48:59.655Z,38.80
2019-03-26T00:51:56.400Z,39.00
2019-03-26T00:54:53.617Z,39.00
2019-03-26T00:57:50.516Z,39.30
2019-03-26T01:00:48.207Z,39.70
2019-03-26T01:03:45.120Z,39.80
2019-03-26T01:06:41.673Z,40.00
2019-03-26T01:09:40.357Z,40.10
2019-03-26T01:12:37.279Z,40.30
2019-03-26T01:15:34.251Z,39.60
2019-03-26T01:18:30.383Z,40.10
2019-03-26T01:21:26.732Z,40.00
2019-03-26T01:24:23.488Z,40.00
2019-03-26T01:27:20.288Z,40.00
2019-03-26T01:30:17.085Z,39.90
2019-03-26T01:33:13.653Z,39.90
2019-03-26T01:36:10.554Z,39.90
2019-03-26T01:39:08.139Z,39.40
2019-03-26T01:42:04.967Z,40.10
2019-03-26T01:45:02.187Z,40.00
2019-03-26T01:47:59.469Z,40.10
2019-03-26T01:50:56.587Z,40.00
2019-03-26T01:53:53.434Z,40.10
2019-03-26T01:56:53.051Z,40.20
2019-03-26T01:59:49.970Z,40.20
2019-03-26T02:02:46.815Z,40.20
2019-03-26T02:05:43.748Z,40.30
2019-03-26T02:08:40.723Z,40.20
2019-03-26T02:11:37.091Z,39.50
2019-03-26T02:14:33.675Z,40.30
2019-03-26T02:17:31.592Z,40.40
2019-03-26T02:20:28.513Z,40.20
2019-03-26T02:23:25.540Z,39.90
2019-03-26T02:26:22.481Z,39.60
2019-03-26T02:29:19.385Z,39.40
2019-03-26T02:32:17.674Z,39.40
2019-03-26T02:35:18.266Z,39.70
2019-03-26T02:38:11.363Z,39.80
2019-03-26T02:41:08.037Z,39.60
2019-03-26T02:44:06.561Z,39.50
2019-03-26T02:47:04.800Z,39.20
2019-03-26T02:50:02.763Z,39.20
2019-03-26T02:53:00.637Z,38.90
2019-03-26T02:55:59.305Z,38.20
2019-03-26T02:58:56.810Z,37.90
2019-03-26T03:01:53.548Z,37.80
2019-03-26T03:04:50.744Z,37.50
2019-03-26T03:07:48.597Z,37.20
2019-03-26T03:10:45.611Z,36.80
2019-03-26T03:13:44.213Z,36.10
2019-03-26T03:16:41.737Z,36.30
2019-03-26T03:19:39.518Z,36.10
2019-03-26T03:22:36.788Z,36.10
2019-03-26T03:25:32.869Z,36.30
2019-03-26T03:28:29.548Z,36.30
2019-03-26T03:31:26.157Z,36.30
2019-03-26T03:34:23.447Z,36.20
2019-03-26T03:37:21.068Z,35.90
2019-03-26T03:40:19.293Z,35.90
2019-03-26T03:43:17.406Z,35.80
2019-03-26T03:46:14.076Z,35.80
2019-03-26T03:49:11.164Z,35.80
2019-03-26T03:52:09.362Z,36.10
2019-03-26T03:55:05.871Z,36.00
2019-03-26T03:58:04.190Z,36.10
2019-03-26T04:01:00.897Z,36.10
2019-03-26T04:03:57.020Z,35.90
2019-03-26T04:06:54.081Z,35.90
2019-03-26T04:09:52.642Z,36.00
2019-03-26T04:12:49.712Z,36.10
2019-03-26T04:15:46.496Z,35.50
2019-03-26T04:18:43.479Z,35.50
2019-03-26T04:21:40.293Z,35.70
2019-03-26T04:24:37.065Z,35.50
2019-03-26T04:27:34.520Z,35.70
2019-03-26T04:30:38.054Z,35.90
2019-03-26T04:33:34.949Z,36.00
2019-03-26T04:36:32.092Z,36.10
2019-03-26T05:05:58.384Z,37.70
2019-03-26T05:08:56.520Z,37.90
2019-03-26T05:11:54.577Z,38.10
2019-03-26T05:14:53.769Z,38.20
2019-03-26T05:17:57.420Z,38.30
2019-03-26T05:20:56.651Z,38.30
2019-03-26T05:23:56.480Z,38.50
2019-03-26T05:26:59.061Z,38.50
2019-03-26T05:29:57.328Z,38.90
2019-03-26T05:33:06.873Z,39.30
2019-03-26T05:36:06.264Z,39.80
2019-03-26T05:39:05.378Z,40.30
2019-03-26T05:42:09.385Z,40.40
2019-03-26T05:45:14.692Z,40.50
2019-03-26T05:48:16.312Z,40.60
2019-03-26T05:51:19.332Z,40.60
2019-03-26T05:54:21.915Z,40.60
2019-03-26T05:57:25.076Z,40.50
2019-03-26T06:00:32.819Z,40.50
2019-03-26T06:03:34.010Z,40.70
2019-03-26T06:06:33.770Z,41.00
2019-03-26T06:09:38.949Z,41.10
2019-03-26T06:12:40.999Z,41.20
2019-03-26T06:15:37.706Z,41.00
2019-03-26T06:18:39.623Z,41.00
2019-03-26T06:21:38.425Z,41.20
2019-03-26T06:24:35.633Z,41.30
2019-03-26T06:27:36.464Z,41.40
2019-03-26T06:30:35.899Z,41.40
2019-03-26T06:33:35.365Z,41.20
2019-03-26T06:36:32.753Z,41.40
2019-03-26T06:39:30.780Z,41.40
2019-03-26T06:42:27.457Z,41.10
2019-03-26T06:45:26.131Z,40.80
2019-03-26T06:48:24.295Z,40.60
2019-03-26T06:51:20.943Z,40.50
2019-03-26T06:55:18.297Z,40.40
2019-03-26T06:58:36.878Z,40.30
2019-03-26T07:01:36.941Z,40.50
2019-03-26T07:04:51.382Z,40.30
2019-03-26T07:07:52.311Z,40.20
2019-03-26T07:11:00.498Z,40.20
2019-03-26T07:14:06.829Z,40.10
2019-03-26T07:17:18.334Z,40.00
2019-03-26T07:20:17.923Z,39.90
2019-03-26T07:23:27.738Z,39.70
2019-03-26T07:26:41.113Z,39.30
2019-03-26T07:30:13.518Z,38.80
2019-03-26T07:33:15.674Z,38.60
2019-03-26T07:36:45.263Z,38.20
2019-03-26T07:39:45.531Z,38.10
2019-03-26T07:42:42.520Z,38.10
2019-03-26T07:45:47.310Z,38.30
2019-03-26T07:48:56.609Z,38.00
2019-03-26T07:52:15.714Z,37.80
2019-03-26T07:55:19.935Z,37.40
2019-03-26T07:58:28.508Z,37.20
2019-03-26T08:01:26.479Z,36.90
2019-03-26T08:04:25.393Z,36.60
2019-03-26T08:07:22.396Z,36.20
2019-03-26T08:10:28.249Z,36.00
2019-03-26T08:13:51.112Z,35.70
2019-03-26T08:17:17.431Z,35.80
2019-03-26T08:20:19.887Z,35.80
2019-03-26T08:23:18.210Z,35.70
2019-03-26T08:26:27.564Z,35.70
2019-03-26T08:29:28.910Z,35.50
2019-03-26T08:32:26.604Z,35.30
2019-03-26T08:35:25.167Z,35.00
2019-03-26T08:38:22.937Z,34.40
2019-03-26T08:41:20.033Z,34.30
2019-03-26T08:44:17.049Z,33.90
2019-03-26T08:47:14.350Z,33.40
2019-03-26T08:50:12.114Z,33.20
2019-03-26T08:53:17.769Z,33.00
2019-03-26T08:56:36.202Z,32.90
2019-03-26T08:59:46.040Z,32.50
2019-03-26T09:02:43.743Z,32.40
2019-03-26T09:05:47.118Z,32.40
2019-03-26T09:08:44.723Z,32.00
2019-03-26T09:11:45.098Z,31.80
2019-03-26T09:14:42.614Z,31.60
2019-03-26T09:17:44.103Z,30.90
2019-03-26T09:20:38.131Z,30.60
2019-03-26T09:23:35.200Z,30.60
2019-03-26T09:26:33.298Z,30.60
2019-03-26T09:29:31.080Z,30.50
2019-03-26T09:32:29.281Z,30.50
2019-03-26T09:35:27.197Z,30.70
2019-03-26T09:38:38.071Z,30.00
2019-03-26T09:41:24.771Z,30.50
2019-03-26T09:44:22.567Z,31.40
2019-03-26T09:47:22.368Z,31.30
2019-03-26T09:50:35.869Z,31.20
2019-03-26T09:53:38.535Z,30.70
2019-03-26T09:56:38.390Z,30.00
2019-03-26T09:59:46.043Z,30.10
2019-03-26T10:02:56.790Z,30.40
2019-03-26T10:05:58.028Z,30.50
2019-03-26T10:08:59.959Z,30.30
2019-03-26T10:12:17.815Z,30.30
2019-03-26T10:15:16.271Z,30.00
2019-03-26T10:18:14.654Z,29.80
2019-03-26T10:21:12.938Z,29.70
2019-03-26T10:24:14.841Z,29.80
2019-03-26T10:27:12.249Z,29.80
2019-03-26T10:30:09.733Z,29.90
2019-03-26T10:33:10.449Z,29.70
2019-03-26T10:36:08.305Z,29.60
2019-03-26T10:39:07.228Z,29.80
2019-03-26T10:42:08.968Z,30.00
2019-03-26T10:45:08.987Z,30.00
2019-03-26T10:48:09.324Z,30.20
2019-03-26T10:51:06.736Z,30.50
2019-03-26T10:54:04.181Z,30.60
2019-03-26T10:57:01.417Z,30.60
2019-03-26T10:59:59.201Z,30.30
2019-03-26T11:02:56.148Z,30.40
2019-03-26T11:05:54.551Z,30.10
2019-03-26T11:08:54.223Z,30.20
2019-03-26T11:11:52.358Z,30.10
2019-03-26T11:14:50.498Z,29.90
2019-03-26T11:17:47.360Z,29.80
2019-03-26T11:20:46.575Z,29.60
2019-03-26T11:23:47.496Z,29.70
2019-03-26T11:26:42.025Z,29.70
2019-03-26T11:29:39.726Z,29.60
2019-03-26T11:32:37.873Z,29.70
2019-03-26T11:35:35.401Z,29.50
2019-03-26T11:38:35.529Z,29.30
2019-03-26T11:41:36.899Z,29.30
2019-03-26T11:44:35.593Z,29.00
2019-03-26T11:47:35.742Z,28.60
2019-03-26T11:50:39.850Z,28.50
2019-03-26T11:53:42.240Z,28.40
2019-03-26T11:56:49.880Z,28.30
2019-03-26T11:59:48.277Z,28.40
2019-03-26T12:02:45.906Z,28.30
2019-03-26T12:05:43.034Z,28.30
2019-03-26T12:08:48.426Z,28.30
2019-03-26T12:11:46.124Z,28.20
2019-03-26T12:14:44.398Z,28.30
2019-03-26T12:17:44.807Z,28.20
2019-03-26T12:20:44.483Z,28.30
2019-03-26T12:23:45.957Z,28.50
2019-03-26T12:26:51.401Z,28.50
2019-03-26T12:29:52.535Z,28.60
2019-03-26T12:32:50.196Z,28.80
2019-03-26T12:35:46.944Z,28.80
2019-03-26T12:38:43.794Z,28.80
2019-03-26T12:41:40.818Z,28.80
2019-03-26T12:44:37.128Z,28.90
2019-03-26T12:47:33.982Z,29.00
2019-03-26T12:50:32.230Z,29.00
2019-03-26T12:53:29.129Z,29.00
2019-03-26T12:56:27.676Z,29.20
2019-03-26T12:59:26.546Z,29.10
2019-03-26T13:02:21.211Z,29.70
2019-03-26T13:05:19.082Z,29.30
2019-03-26T13:08:16.218Z,29.50
2019-03-26T13:11:16.831Z,29.60
2019-03-26T13:14:20.814Z,29.60
2019-03-26T13:17:13.625Z,29.80
2019-03-26T13:20:14.185Z,29.80
2019-03-26T13:23:11.986Z,29.80
2019-03-26T13:26:10.463Z,29.90
2019-03-26T13:29:12.763Z,30.00
2019-03-26T13:32:13.190Z,30.00
2019-03-26T13:35:10.639Z,30.10
2019-03-26T13:38:08.571Z,30.30
2019-03-26T13:41:05.246Z,30.60
2019-03-26T13:44:03.269Z,30.60
2019-03-26T13:47:00.010Z,30.80
2019-03-26T13:49:56.737Z,30.80
2019-03-26T13:52:54.391Z,30.90
2019-03-26T13:55:52.065Z,30.90
2019-03-26T13:58:48.684Z,31.20
2019-03-26T14:01:45.845Z,31.20
2019-03-26T14:04:43.108Z,31.40
2019-03-26T14:07:39.829Z,31.50
2019-03-26T14:10:41.285Z,31.60
2019-03-26T14:13:33.958Z,31.60
2019-03-26T14:16:30.403Z,31.60
2019-03-26T14:19:26.734Z,31.80
2019-03-26T14:22:23.664Z,32.00
2019-03-26T14:25:21.802Z,32.30
2019-03-26T14:28:19.290Z,32.40
2019-03-26T14:31:16.103Z,32.40
2019-03-26T14:34:13.999Z,32.50
2019-03-26T14:37:13.607Z,33.30
2019-03-26T14:40:10.776Z,32.40
2019-03-26T14:43:07.431Z,32.40
2019-03-26T14:46:04.994Z,32.50
2019-03-26T14:49:03.152Z,32.50
2019-03-26T14:52:00.211Z,32.50
2019-03-26T14:54:57.228Z,32.60
2019-03-26T14:57:54.300Z,32.40
2019-03-26T15:00:51.579Z,32.50
2019-03-26T15:03:48.868Z,32.60
2019-03-26T15:06:46.128Z,32.90
2019-03-26T15:09:42.757Z,33.10
2019-03-26T15:12:39.894Z,33.40
2019-03-26T15:15:37.878Z,33.70
2019-03-26T15:18:34.826Z,33.90
2019-03-26T15:21:31.882Z,34.10
2019-03-26T15:24:28.280Z,34.50
2019-03-26T15:27:25.343Z,34.60
2019-03-26T15:30:22.059Z,34.90
2019-03-26T15:33:19.586Z,35.00
2019-03-26T15:36:16.931Z,35.00
2019-03-26T15:39:14.885Z,35.10
2019-03-26T15:42:11.754Z,35.10
2019-03-26T15:45:08.619Z,35.20
2019-03-26T15:48:05.779Z,35.00
2019-03-26T15:51:04.114Z,35.00
2019-03-26T15:54:01.381Z,35.30
2019-03-26T15:56:59.127Z,35.70
2019-03-26T15:59:57.376Z,36.10
2019-03-26T16:02:54.701Z,36.00
2019-03-26T16:05:52.738Z,35.20
2019-03-26T16:08:49.291Z,35.00
2019-03-26T16:11:46.185Z,34.80
2019-03-26T16:14:44.485Z,34.60
2019-03-26T16:17:42.333Z,35.20
2019-03-26T16:20:39.585Z,34.70
2019-03-26T16:23:38.632Z,34.80
2019-03-26T16:26:35.649Z,35.30
2019-03-26T16:29:33.366Z,35.10
2019-03-26T16:32:30.548Z,35.10
2019-03-26T16:35:27.539Z,35.10
2019-03-26T16:38:25.029Z,34.90
2019-03-26T16:41:22.233Z,34.90
2019-03-26T16:44:19.653Z,35.00
2019-03-26T16:47:16.260Z,34.90
2019-03-26T16:50:13.805Z,34.80
2019-03-26T16:53:13.726Z,34.70
2019-03-26T16:56:08.884Z,34.40
2019-03-26T16:59:05.986Z,34.20
2019-03-26T17:02:03.111Z,34.10
2019-03-26T17:05:01.691Z,34.00
2019-03-26T17:07:58.734Z,33.90
2019-03-26T17:10:55.394Z,33.80
2019-03-26T17:13:52.097Z,33.40
2019-03-26T17:16:48.955Z,32.90
2019-03-26T17:19:45.534Z,32.40
2019-03-26T17:22:42.551Z,32.20
2019-03-26T17:25:39.583Z,31.90
2019-03-26T17:28:36.321Z,31.70
2019-03-26T17:31:34.560Z,31.70
2019-03-26T17:34:32.011Z,31.40
2019-03-26T17:37:29.265Z,31.20
2019-03-26T17:40:27.716Z,31.20
2019-03-26T17:43:26.699Z,31.20
2019-03-26T17:46:27.536Z,31.30
2019-03-26T17:49:24.188Z,31.20
2019-03-26T17:52:21.190Z,31.30
2019-03-26T17:55:18.771Z,31.40
2019-03-26T17:58:17.075Z,31.40
2019-03-26T18:01:13.488Z,31.60
2019-03-26T18:04:10.171Z,32.00
2019-03-26T18:07:07.662Z,32.00
2019-03-26T18:10:04.719Z,32.00
2019-03-26T18:13:02.506Z,32.10
2019-03-26T18:15:59.291Z,32.20
2019-03-26T18:18:56.742Z,32.40
2019-03-26T18:21:53.550Z,32.40
2019-03-26T18:24:50.634Z,32.60
2019-03-26T18:27:47.517Z,32.60
2019-03-26T18:30:44.715Z,32.80
2019-03-26T18:33:42.885Z,33.00
2019-03-26T18:36:39.924Z,33.70
2019-03-26T18:39:37.125Z,33.10
2019-03-26T18:42:43.485Z,33.30
2019-03-26T18:45:32.389Z,33.40
2019-03-26T18:48:30.048Z,33.50
2019-03-26T18:51:26.912Z,33.50
2019-03-26T18:54:23.642Z,33.70
2019-03-26T18:57:20.428Z,33.70
2019-03-26T19:00:17.966Z,33.90
2019-03-26T19:03:15.228Z,34.00
2019-03-26T19:06:12.669Z,34.00
2019-03-26T19:09:10.898Z,34.10
2019-03-26T19:12:07.768Z,34.30
2019-03-26T19:15:05.159Z,34.40
2019-03-26T19:18:01.646Z,34.50
2019-03-26T19:21:02.318Z,34.50
2019-03-26T19:24:03.829Z,34.60
2019-03-26T19:26:54.059Z,34.80
2019-03-26T19:29:50.894Z,35.00
2019-03-26T19:32:47.739Z,35.00
2019-03-26T19:35:44.801Z,35.10
2019-03-26T19:38:41.810Z,35.20
2019-03-26T19:41:38.431Z,35.30
2019-03-26T19:44:37.814Z,35.40
2019-03-26T19:47:34.674Z,35.60
2019-03-26T19:50:31.662Z,35.70
2019-03-26T19:53:28.167Z,35.70
2019-03-26T19:56:24.679Z,35.90
2019-03-26T19:59:21.276Z,36.10
2019-03-26T20:02:17.909Z,36.10
2019-03-26T20:05:14.428Z,36.30
2019-03-26T20:08:11.540Z,36.40
2019-03-26T20:11:09.032Z,36.50
2019-03-26T20:14:05.987Z,36.50
2019-03-26T20:17:02.638Z,36.60
2019-03-26T20:19:59.196Z,36.70
2019-03-26T20:22:56.141Z,36.80
2019-03-26T20:25:52.669Z,36.40
2019-03-26T20:28:48.998Z,37.10
2019-03-26T20:31:45.831Z,37.20
2019-03-26T20:34:42.479Z,37.40
2019-03-26T20:37:38.835Z,37.40
2019-03-26T20:40:35.491Z,37.40
2019-03-26T20:43:37.239Z,37.50
2019-03-26T20:46:29.605Z,37.40
2019-03-26T20:49:26.898Z,37.50
2019-03-26T20:52:23.563Z,37.70
2019-03-26T20:55:21.403Z,37.90
2019-03-26T20:58:18.240Z,37.90
2019-03-26T21:01:15.129Z,37.90
2019-03-26T21:04:11.788Z,38.00
2019-03-26T21:07:09.465Z,38.20
2019-03-26T21:10:07.594Z,38.20
2019-03-26T21:13:04.165Z,38.20
2019-03-26T21:16:01.174Z,38.30
2019-03-26T21:18:57.991Z,38.30
2019-03-26T21:21:55.028Z,38.40
2019-03-26T21:24:52.282Z,38.50
2019-03-26T21:27:49.058Z,38.50
2019-03-26T21:30:45.411Z,38.60
2019-03-26T21:33:42.505Z,38.60
2019-03-26T21:36:39.813Z,38.70
2019-03-26T21:39:36.751Z,38.70
2019-03-26T21:42:33.749Z,38.80
2019-03-26T21:45:41.183Z,38.80
2019-03-26T21:48:38.283Z,39.00
2019-03-26T21:51:36.171Z,39.00
2019-03-26T21:54:33.464Z,39.10
2019-03-26T21:57:30.152Z,39.30
2019-03-26T22:00:26.761Z,39.40
2019-03-26T22:03:23.431Z,39.40
2019-03-26T22:06:19.996Z,39.30
2019-03-26T22:09:16.844Z,39.50
2019-03-26T22:12:13.759Z,39.50
2019-03-26T22:15:11.529Z,39.60
2019-03-26T22:18:08.394Z,39.80
2019-03-26T22:21:05.392Z,40.00
2019-03-26T22:24:02.088Z,39.90
2019-03-26T22:26:59.026Z,40.00
2019-03-26T22:29:56.733Z,40.10
2019-03-26T22:32:53.293Z,40.30
2019-03-26T22:35:55.868Z,40.40
2019-03-26T22:38:50.174Z,40.50
2019-03-26T22:41:46.479Z,40.50
2019-03-26T22:44:43.369Z,40.70
2019-03-26T22:47:40.323Z,40.80
2019-03-26T22:50:37.179Z,40.70
2019-03-26T22:53:34.277Z,40.90
2019-03-26T22:56:30.813Z,40.90
2019-03-26T22:59:27.315Z,41.10
2019-03-26T23:02:24.090Z,41.20
2019-03-26T23:05:21.399Z,41.40
2019-03-26T23:08:17.989Z,41.80
2019-03-26T23:11:14.627Z,41.50
2019-03-26T23:14:11.481Z,41.50
2019-03-26T23:17:08.635Z,41.60
2019-03-26T23:20:05.577Z,41.70
2019-03-26T23:23:02.165Z,41.70
2019-03-26T23:25:59.190Z,41.70
2019-03-26T23:28:56.010Z,41.90
2019-03-26T23:31:53.087Z,41.90
2019-03-26T23:34:49.666Z,42.00
2019-03-26T23:37:46.102Z,42.00
2019-03-26T23:40:42.489Z,42.00
2019-03-26T23:43:39.635Z,42.10
2019-03-26T23:46:35.963Z,42.30
2019-03-26T23:49:33.216Z,42.20
2019-03-26T23:52:29.814Z,42.00
2019-03-26T23:55:26.411Z,42.00
2019-03-26T23:58:24.124Z,42.00
